createdAt,value
2018-09-08T00:01:57.225Z,94.11
2018-09-08T00:04:26.830Z,94.21
2018-09-08T00:07:01.893Z,94.09
2018-09-08T00:15:23.498Z,93.56
2018-09-08T00:17:58.154Z,94.06
2018-09-08T00:20:34.178Z,94.35
2018-09-08T00:23:09.144Z,94.37
2018-09-08T00:25:44.992Z,94.25
2018-09-08T00:28:31.796Z,93.81
2018-09-08T00:31:02.995Z,93.96
2018-09-08T00:33:35.568Z,94.62
2018-09-08T00:36:06.920Z,94.78
2018-09-08T00:38:36.377Z,94.76
2018-09-08T00:41:06.606Z,94.17
2018-09-08T00:43:37.702Z,94.21
2018-09-08T00:46:07.945Z,94.61
2018-09-08T00:48:37.352Z,94.42
2018-09-08T00:51:11.917Z,94.98
2018-09-08T00:53:41.441Z,95.17
2018-09-08T00:56:10.976Z,94.75
2018-09-08T00:58:44.980Z,94.85
2018-09-08T01:01:14.717Z,95.48
2018-09-08T01:03:44.301Z,95.15
2018-09-08T01:06:15.296Z,95.37
2018-09-08T01:08:55.472Z,95.01
2018-09-08T01:11:25.776Z,95.24
2018-09-08T01:13:55.939Z,95.15
2018-09-08T01:16:25.487Z,95.19
2018-09-08T01:18:57.304Z,95.41
2018-09-08T01:21:27.056Z,95.66
2018-09-08T01:23:56.603Z,95.50
2018-09-08T01:26:26.307Z,95.65
2018-09-08T01:28:55.792Z,96.28
2018-09-08T01:31:25.852Z,96.28
2018-09-08T01:33:56.757Z,95.85
2018-09-08T01:36:26.906Z,95.96
2018-09-08T01:38:56.380Z,95.95
2018-09-08T01:41:27.011Z,96.28
2018-09-08T01:43:56.516Z,95.66
2018-09-08T01:46:26.624Z,95.81
2018-09-08T01:48:57.406Z,95.55
2018-09-08T01:51:27.892Z,94.89
2018-09-08T01:53:57.992Z,94.81
2018-09-08T01:56:27.458Z,95.29
2018-09-08T01:58:56.940Z,95.34
2018-09-08T02:01:26.546Z,95.57
2018-09-08T02:06:53.462Z,96.11
2018-09-08T02:09:23.931Z,96.38
2018-09-08T02:11:55.690Z,96.42
2018-09-08T02:14:26.295Z,97.12
2018-09-08T02:16:57.026Z,96.50
2018-09-08T02:19:27.818Z,96.31
2018-09-08T02:21:59.860Z,96.35
2018-09-08T02:24:30.799Z,96.93
2018-09-08T02:27:01.418Z,97.20
2018-09-08T02:29:37.085Z,97.45
2018-09-08T02:32:09.526Z,97.40
2018-09-08T02:34:39.279Z,97.26
2018-09-08T02:37:08.940Z,97.50
2018-09-08T02:39:40.688Z,98.16
2018-09-08T02:42:12.228Z,98.16
2018-09-08T02:44:41.675Z,97.88
2018-09-08T02:47:15.730Z,97.44
2018-09-08T02:49:56.968Z,97.49
2018-09-08T02:52:25.096Z,97.40
2018-09-08T02:54:54.475Z,97.55
2018-09-08T02:57:22.920Z,97.09
2018-09-08T02:59:51.249Z,97.02
2018-09-08T03:02:19.558Z,97.42
2018-09-08T03:04:48.050Z,97.77
2018-09-08T03:07:16.197Z,97.67
2018-09-08T03:09:45.577Z,97.23
2018-09-08T03:12:14.025Z,97.43
2018-09-08T03:14:43.375Z,97.33
2018-09-08T03:17:11.732Z,97.33
2018-09-08T03:19:39.935Z,97.59
2018-09-08T03:22:08.298Z,97.21
2018-09-08T03:24:36.824Z,97.25
2018-09-08T03:27:05.494Z,97.70
2018-09-08T03:29:35.035Z,98.23
2018-09-08T03:32:03.260Z,97.86
2018-09-08T03:34:32.111Z,98.20
2018-09-08T03:37:00.335Z,97.66
2018-09-08T03:39:28.583Z,97.81
2018-09-08T03:41:56.853Z,97.55
2018-09-08T03:44:25.356Z,97.35
2018-09-08T03:46:53.579Z,96.90
2018-09-08T03:49:21.936Z,96.32
2018-09-08T03:51:50.332Z,95.86
2018-09-08T03:54:18.849Z,95.94
2018-09-08T03:56:47.519Z,95.65
2018-09-08T03:59:15.760Z,95.32
2018-09-08T04:01:43.984Z,95.16
2018-09-08T04:04:13.920Z,95.04
2018-09-08T04:06:43.437Z,94.51
2018-09-08T04:09:13.283Z,94.23
2018-09-08T04:11:44.289Z,94.67
2018-09-08T04:14:14.524Z,94.89
2018-09-08T04:16:44.207Z,95.58
2018-09-08T04:19:13.831Z,95.76
2018-09-08T04:21:43.613Z,95.92
2018-09-08T04:24:30.864Z,95.92
2018-09-08T04:27:00.465Z,96.29
2018-09-08T04:29:30.329Z,95.94
2018-09-08T04:32:00.204Z,96.30
2018-09-08T04:34:36.294Z,96.23
2018-09-08T04:37:05.924Z,96.63
2018-09-08T04:39:35.696Z,96.70
2018-09-08T04:42:06.886Z,96.66
2018-09-08T04:44:38.038Z,96.13
2018-09-08T04:47:08.169Z,96.22
2018-09-08T04:49:37.764Z,94.95
2018-09-08T04:52:08.076Z,94.99
2018-09-08T04:54:44.553Z,94.38
2018-09-08T04:57:14.309Z,94.75
2018-09-08T04:59:44.093Z,94.34
2018-09-08T05:02:14.012Z,94.29
2018-09-08T05:04:47.313Z,93.81
2018-09-08T05:07:16.957Z,93.73
2018-09-08T05:09:47.421Z,95.21
2018-09-08T05:12:19.330Z,95.44
2018-09-08T05:14:49.207Z,95.34
2018-09-08T05:17:20.215Z,95.13
2018-09-08T05:19:50.368Z,94.85
2018-09-08T05:22:21.432Z,94.76
2018-09-08T05:24:51.408Z,94.61
2018-09-08T05:27:22.122Z,94.04
2018-09-08T05:29:51.781Z,93.24
2018-09-08T05:32:23.673Z,92.46
2018-09-08T05:34:53.330Z,92.65
2018-09-08T05:37:23.611Z,92.18
2018-09-08T05:39:53.407Z,92.49
2018-09-08T05:42:23.750Z,92.59
2018-09-08T05:44:54.387Z,92.72
2018-09-08T05:47:24.946Z,92.45
2018-09-08T05:49:54.891Z,93.03
2018-09-08T05:52:25.163Z,92.83
2018-09-08T05:54:54.875Z,92.96
2018-09-08T05:57:25.172Z,93.16
2018-09-08T05:59:54.800Z,93.65
2018-09-08T06:02:24.627Z,93.54
2018-09-08T06:04:55.547Z,92.95
2018-09-08T06:07:25.490Z,92.47
2018-09-08T06:09:55.571Z,91.79
2018-09-08T06:12:26.126Z,91.57
2018-09-08T06:14:56.196Z,91.82
2018-09-08T06:17:26.325Z,91.27
2018-09-08T06:23:19.026Z,90.60
2018-09-08T06:25:49.220Z,90.24
2018-09-08T06:28:21.731Z,89.76
2018-09-08T06:30:51.482Z,89.05
2018-09-08T06:33:21.279Z,88.58
2018-09-08T06:35:51.487Z,88.14
2018-09-08T06:38:21.453Z,87.54
2018-09-08T06:40:51.368Z,85.76
2018-09-08T06:43:21.046Z,85.57
2018-09-08T06:45:50.718Z,84.31
2018-09-08T06:48:20.335Z,83.39
2018-09-08T06:50:52.307Z,82.44
2018-09-08T06:53:22.311Z,81.88
2018-09-08T06:55:53.184Z,81.32
2018-09-08T06:58:24.090Z,78.84
2018-09-08T07:00:55.067Z,76.42
2018-09-08T07:03:25.171Z,71.58
2018-09-08T07:05:57.186Z,71.42
2018-09-08T07:08:26.913Z,69.11
2018-09-08T07:10:58.734Z,67.41
2018-09-08T07:13:30.567Z,67.19
2018-09-08T07:16:05.184Z,65.07
2018-09-08T07:18:36.265Z,63.97
2018-09-08T07:21:06.575Z,63.39
2018-09-08T07:23:36.242Z,63.02
2018-09-08T07:26:07.608Z,61.28
2018-09-08T07:28:37.287Z,61.17
2018-09-08T07:31:10.128Z,60.70
2018-09-08T07:33:40.485Z,59.74
2018-09-08T07:36:10.570Z,59.23
2018-09-08T07:38:40.537Z,57.70
2018-09-08T07:41:11.750Z,54.72
2018-09-08T07:43:42.371Z,53.09
2018-09-08T07:46:12.769Z,48.27
2018-09-08T07:48:44.413Z,48.83
2018-09-08T07:51:14.782Z,47.75
2018-09-08T07:53:45.232Z,45.56
2018-09-08T07:56:19.165Z,44.98
2018-09-08T07:58:49.656Z,42.35
2018-09-08T08:01:19.389Z,42.03
2018-09-08T08:03:49.466Z,41.70
2018-09-08T08:06:20.403Z,41.20
2018-09-08T08:08:50.396Z,38.93
2018-09-08T08:11:22.072Z,39.04
2018-09-08T08:13:53.699Z,39.24
2018-09-08T08:16:25.426Z,38.65
2018-09-08T08:18:59.960Z,37.86
2018-09-08T08:21:35.907Z,36.84
2018-09-08T08:24:07.044Z,36.48
2018-09-08T08:26:37.247Z,34.66
2018-09-08T08:29:06.943Z,36.27
2018-09-08T08:31:36.820Z,34.99
2018-09-08T08:34:07.427Z,34.66
2018-09-08T08:36:37.548Z,34.58
2018-09-08T08:39:09.233Z,35.51
2018-09-08T08:41:39.084Z,34.06
2018-09-08T08:44:09.096Z,35.51
2018-09-08T08:46:38.746Z,35.25
2018-09-08T08:49:09.250Z,34.71
2018-09-08T08:51:50.019Z,33.33
2018-09-08T08:54:23.345Z,34.10
2018-09-08T08:56:52.987Z,31.94
2018-09-08T08:59:24.545Z,31.66
2018-09-08T09:01:54.424Z,29.07
2018-09-08T09:04:26.929Z,31.04
2018-09-08T09:06:58.399Z,28.62
2018-09-08T09:09:28.674Z,30.39
2018-09-08T09:12:00.220Z,29.52
2018-09-08T09:14:30.471Z,27.36
2018-09-08T09:17:00.534Z,27.65
2018-09-08T09:19:42.175Z,28.30
2018-09-08T09:22:26.627Z,25.97
2018-09-08T09:25:00.852Z,27.97
2018-09-08T09:27:33.610Z,26.87
2018-09-08T09:30:17.247Z,27.92
2018-09-08T09:32:48.906Z,28.84
2018-09-08T09:35:21.411Z,31.47
2018-09-08T09:37:52.627Z,31.68
2018-09-08T09:40:23.569Z,35.34
2018-09-08T09:42:54.211Z,37.19
2018-09-08T09:45:25.450Z,36.78
2018-09-08T09:47:55.403Z,35.51
2018-09-08T09:50:25.475Z,35.56
2018-09-08T09:52:58.262Z,34.79
2018-09-08T09:55:28.083Z,35.82
2018-09-08T09:57:58.410Z,33.36
2018-09-08T10:00:33.101Z,32.28
2018-09-08T10:03:08.290Z,30.73
2018-09-08T10:05:37.875Z,32.91
2018-09-08T10:08:08.511Z,34.16
2018-09-08T10:10:40.081Z,32.77
2018-09-08T10:13:10.248Z,33.23
2018-09-08T10:15:39.867Z,34.87
2018-09-08T10:18:10.267Z,34.57
2018-09-08T10:20:41.317Z,34.94
2018-09-08T10:23:12.680Z,35.41
2018-09-08T10:25:42.278Z,35.96
2018-09-08T10:28:13.258Z,39.08
2018-09-08T10:30:43.225Z,39.20
2018-09-08T10:33:12.832Z,39.07
2018-09-08T10:35:42.492Z,39.13
2018-09-08T10:38:14.733Z,39.93
2018-09-08T10:40:44.853Z,41.12
2018-09-08T10:43:14.888Z,41.11
2018-09-08T10:45:47.263Z,41.31
2018-09-08T10:48:18.010Z,40.41
2018-09-08T10:50:48.322Z,40.38
2018-09-08T10:55:56.806Z,39.12
2018-09-08T10:58:39.092Z,39.54
2018-09-08T11:01:09.340Z,39.86
2018-09-08T11:03:39.051Z,42.50
2018-09-08T11:06:15.031Z,42.41
2018-09-08T11:08:45.604Z,41.80
2018-09-08T11:11:21.855Z,40.90
2018-09-08T11:13:54.298Z,41.41
2018-09-08T11:16:24.973Z,42.09
2018-09-08T11:18:55.554Z,42.07
2018-09-08T11:21:26.471Z,43.41
2018-09-08T11:23:56.272Z,41.83
2018-09-08T11:26:26.029Z,42.21
2018-09-08T11:28:57.549Z,42.32
2018-09-08T11:31:31.401Z,41.61
2018-09-08T11:34:01.521Z,42.41
2018-09-08T11:36:31.548Z,42.19
2018-09-08T11:39:02.257Z,43.58
2018-09-08T11:41:32.251Z,41.89
2018-09-08T11:44:01.959Z,41.22
2018-09-08T11:46:32.962Z,42.48
2018-09-08T11:49:02.679Z,41.18
2018-09-08T11:51:32.259Z,45.31
2018-09-08T11:54:02.783Z,42.26
2018-09-08T11:56:34.984Z,42.23
2018-09-08T11:59:04.929Z,41.64
2018-09-08T12:01:36.796Z,44.74
2018-09-08T12:04:06.762Z,43.09
2018-09-08T12:06:37.628Z,42.03
2018-09-08T12:09:10.378Z,41.93
2018-09-08T12:11:40.060Z,42.12
2018-09-08T12:14:12.170Z,42.17
2018-09-08T12:16:41.932Z,41.25
2018-09-08T12:19:11.603Z,43.16
2018-09-08T12:21:41.650Z,41.39
2018-09-08T12:24:11.800Z,41.94
2018-09-08T12:26:42.438Z,42.46
2018-09-08T12:29:12.412Z,41.33
2018-09-08T12:31:43.417Z,40.52
2018-09-08T12:34:15.141Z,39.24
2018-09-08T12:36:46.550Z,42.29
2018-09-08T12:39:20.204Z,39.31
2018-09-08T12:41:56.872Z,40.39
2018-09-08T12:44:27.216Z,41.36
2018-09-08T12:46:59.988Z,41.92
2018-09-08T12:49:30.273Z,41.26
2018-09-08T12:52:02.254Z,39.82
2018-09-08T12:54:34.111Z,40.32
2018-09-08T12:57:04.353Z,40.02
2018-09-08T12:59:42.904Z,40.69
2018-09-08T13:02:15.455Z,41.33
2018-09-08T13:04:49.236Z,40.42
2018-09-08T13:07:18.917Z,39.38
2018-09-08T13:09:48.606Z,39.42
2018-09-08T13:12:18.273Z,41.06
2018-09-08T13:14:47.835Z,39.01
2018-09-08T13:17:17.439Z,37.35
2018-09-08T13:19:50.853Z,33.50
2018-09-08T13:22:21.779Z,31.06
2018-09-08T13:24:51.445Z,30.58
2018-09-08T13:27:21.631Z,30.96
2018-09-08T13:29:51.317Z,31.50
2018-09-08T13:32:23.857Z,32.67
2018-09-08T13:35:04.526Z,32.15
2018-09-08T13:45:19.855Z,24.46
2018-09-08T13:51:01.417Z,29.14
2018-09-08T13:53:34.092Z,31.55
2018-09-08T13:56:04.946Z,34.72
2018-09-08T13:58:34.825Z,30.82
2018-09-08T14:01:25.559Z,30.69
2018-09-08T14:06:59.222Z,27.51
2018-09-08T14:09:31.644Z,28.07
2018-09-08T14:12:03.368Z,30.46
2018-09-08T14:14:33.456Z,28.89
2018-09-08T14:17:04.685Z,26.00
2018-09-08T14:22:38.659Z,24.30
2018-09-08T14:28:15.354Z,23.14
2018-09-08T14:30:47.396Z,21.79
2018-09-08T14:33:20.845Z,20.24
2018-09-08T14:35:52.205Z,20.49
2018-09-08T14:38:21.959Z,21.65
2018-09-08T14:40:52.860Z,21.97
2018-09-08T14:43:23.828Z,22.26
2018-09-08T14:45:55.492Z,20.18
2018-09-08T14:48:26.522Z,21.36
2018-09-08T14:50:57.071Z,21.20
2018-09-08T14:53:27.830Z,18.87
2018-09-08T14:56:00.915Z,18.57
2018-09-08T14:58:31.511Z,17.85
2018-09-08T15:01:01.353Z,17.00
2018-09-08T15:03:31.415Z,16.00
2018-09-08T15:06:09.669Z,16.38
2018-09-08T15:08:39.385Z,17.96
2018-09-08T15:11:11.586Z,16.82
2018-09-08T15:13:45.723Z,16.92
2018-09-08T15:16:16.671Z,18.51
2018-09-08T15:18:46.496Z,19.08
2018-09-08T15:21:16.200Z,19.16
2018-09-08T15:23:46.579Z,19.22
2018-09-08T15:26:20.090Z,19.54
2018-09-08T15:28:51.105Z,20.44
2018-09-08T15:31:20.915Z,17.02
2018-09-08T15:33:51.244Z,17.17
2018-09-08T15:36:22.341Z,17.65
2018-09-08T15:38:52.327Z,19.74
2018-09-08T15:41:22.019Z,19.26
2018-09-08T15:43:52.825Z,20.72
2018-09-08T15:46:24.503Z,22.04
2018-09-08T15:48:54.547Z,21.85
2018-09-08T15:51:24.905Z,22.46
2018-09-08T15:53:55.317Z,23.13
2018-09-08T15:56:25.173Z,24.68
2018-09-08T15:58:59.278Z,25.75
2018-09-08T16:01:29.315Z,27.56
2018-09-08T16:04:01.104Z,29.31
2018-09-08T16:06:30.879Z,28.05
2018-09-08T16:09:03.279Z,28.64
2018-09-08T16:11:33.429Z,30.94
2018-09-08T16:14:03.670Z,32.27
2018-09-08T16:16:33.633Z,32.45
2018-09-08T16:22:23.895Z,33.39
2018-09-08T16:25:02.185Z,34.87
2018-09-08T16:27:33.176Z,35.92
2018-09-08T16:30:03.046Z,35.56
2018-09-08T16:32:45.720Z,36.95
2018-09-08T16:35:21.795Z,37.87
2018-09-08T16:37:52.385Z,37.53
2018-09-08T16:40:32.545Z,37.30
2018-09-08T16:43:02.424Z,37.25
2018-09-08T16:45:38.831Z,39.60
2018-09-08T16:48:09.117Z,39.67
2018-09-08T16:50:40.817Z,38.50
2018-09-08T16:53:10.678Z,39.06
2018-09-08T16:55:40.876Z,39.56
2018-09-08T16:58:12.198Z,39.22
2018-09-08T17:00:43.429Z,39.90
2018-09-08T17:03:13.388Z,39.94
2018-09-08T17:05:44.142Z,40.75
2018-09-08T17:08:17.799Z,41.39
2018-09-08T17:10:51.305Z,41.89
2018-09-08T17:13:26.021Z,42.56
2018-09-08T17:15:59.536Z,42.85
2018-09-08T17:18:31.773Z,42.33
2018-09-08T17:21:01.698Z,43.18
2018-09-08T17:23:36.494Z,43.95
2018-09-08T17:26:06.381Z,42.49
2018-09-08T17:28:37.884Z,43.74
2018-09-08T17:34:08.695Z,43.72
2018-09-08T17:36:40.366Z,45.60
2018-09-08T17:39:12.907Z,48.48
2018-09-08T17:41:43.973Z,46.76
2018-09-08T17:44:15.463Z,47.08
2018-09-08T17:46:45.806Z,48.29
2018-09-08T17:49:16.340Z,50.36
2018-09-08T17:51:47.799Z,49.16
2018-09-08T17:54:21.244Z,50.45
2018-09-08T17:56:52.316Z,51.06
2018-09-08T17:59:25.825Z,51.70
2018-09-08T18:01:56.510Z,52.56
2018-09-08T18:04:31.064Z,52.36
2018-09-08T18:07:04.451Z,52.29
2018-09-08T18:09:36.377Z,52.33
2018-09-08T18:12:06.676Z,54.23
2018-09-08T18:14:38.655Z,54.53
2018-09-08T18:17:10.335Z,54.70
2018-09-08T18:19:40.015Z,54.87
2018-09-08T18:22:10.675Z,55.31
2018-09-08T18:24:43.771Z,54.71
2018-09-08T18:27:19.017Z,57.15
2018-09-08T18:32:28.415Z,58.55
2018-09-08T18:34:58.400Z,59.18
2018-09-08T18:37:28.479Z,59.83
2018-09-08T18:39:59.051Z,59.82
2018-09-08T18:42:28.734Z,61.68
2018-09-08T18:45:00.472Z,62.66
2018-09-08T18:47:32.663Z,63.13
2018-09-08T18:50:02.326Z,62.75
2018-09-08T18:52:37.031Z,62.16
2018-09-08T18:55:13.088Z,61.72
2018-09-08T18:57:47.346Z,62.45
2018-09-08T19:00:18.468Z,61.74
2018-09-08T19:02:57.380Z,61.79
2018-09-08T19:05:31.750Z,62.36
2018-09-08T19:08:04.325Z,62.88
2018-09-08T19:10:37.339Z,64.35
2018-09-08T19:13:11.322Z,64.65
2018-09-08T19:15:41.306Z,64.72
2018-09-08T19:18:14.866Z,64.98
2018-09-08T19:20:47.334Z,64.47
2018-09-08T19:23:23.549Z,64.32
2018-09-08T19:25:55.231Z,64.44
2018-09-08T19:28:25.345Z,64.37
2018-09-08T19:30:56.307Z,64.28
2018-09-08T19:33:26.067Z,64.03
2018-09-08T19:35:56.362Z,64.64
2018-09-08T19:38:28.012Z,64.20
2018-09-08T19:40:58.674Z,65.15
2018-09-08T19:43:33.004Z,65.59
2018-09-08T19:46:08.604Z,66.37
2018-09-08T19:48:38.417Z,67.06
2018-09-08T19:51:11.207Z,66.38
2018-09-08T19:53:49.714Z,66.89
2018-09-08T19:56:26.200Z,67.55
2018-09-08T19:58:59.123Z,68.69
2018-09-08T20:01:32.432Z,69.60
2018-09-08T20:04:01.982Z,69.27
2018-09-08T20:06:33.350Z,69.21
2018-09-08T20:09:03.239Z,70.31
2018-09-08T20:11:35.250Z,70.64
2018-09-08T20:14:05.333Z,71.53
2018-09-08T20:16:39.371Z,72.42
2018-09-08T20:19:10.221Z,72.47
2018-09-08T20:21:49.629Z,72.03
2018-09-08T20:24:21.487Z,73.12
2018-09-08T20:26:52.007Z,72.85
2018-09-08T20:29:22.111Z,72.81
2018-09-08T20:31:53.401Z,73.19
2018-09-08T20:34:25.396Z,73.08
2018-09-08T20:36:57.577Z,72.65
2018-09-08T20:39:30.666Z,73.35
2018-09-08T20:42:03.755Z,73.43
2018-09-08T20:44:39.822Z,72.81
2018-09-08T20:47:09.535Z,73.47
2018-09-08T20:49:57.413Z,73.02
2018-09-08T20:52:28.087Z,72.90
2018-09-08T20:55:00.852Z,72.88
2018-09-08T20:57:36.264Z,73.47
2018-09-08T21:00:08.182Z,73.67
2018-09-08T21:02:41.478Z,73.96
2018-09-08T21:05:12.817Z,74.91
2018-09-08T21:07:44.948Z,75.16
2018-09-08T21:16:15.274Z,75.00
2018-09-08T21:18:45.168Z,75.16
2018-09-08T21:21:17.754Z,74.90
2018-09-08T21:24:09.746Z,76.02
2018-09-08T21:26:40.868Z,75.20
2018-09-08T21:29:13.306Z,75.19
2018-09-08T21:31:43.738Z,75.91
2018-09-08T21:34:13.505Z,76.70
2018-09-08T21:36:43.746Z,76.81
2018-09-08T21:39:14.343Z,77.25
2018-09-08T21:41:47.188Z,77.40
2018-09-08T21:44:16.777Z,77.88
2018-09-08T21:46:47.888Z,77.74
2018-09-08T21:49:19.033Z,77.58
2018-09-08T21:51:58.996Z,78.07
2018-09-08T21:54:29.200Z,77.56
2018-09-08T21:56:59.239Z,77.74
2018-09-08T21:59:33.304Z,77.52
2018-09-08T22:02:06.900Z,77.83
2018-09-08T22:04:40.617Z,77.42
2018-09-08T22:07:11.487Z,78.50
2018-09-08T22:09:42.486Z,77.79
2018-09-08T22:12:12.571Z,77.73
2018-09-08T22:14:45.480Z,77.79
2018-09-08T22:17:18.117Z,78.14
2018-09-08T22:20:36.384Z,77.25
2018-09-08T22:23:07.556Z,77.09
2018-09-08T22:25:39.799Z,76.92
2018-09-08T22:28:24.751Z,77.87
2018-09-08T22:30:55.125Z,77.92
2018-09-08T22:33:31.249Z,78.51
2018-09-08T22:36:02.355Z,78.86
2018-09-08T22:38:32.776Z,79.24
2018-09-08T22:41:04.164Z,79.46
2018-09-08T22:43:35.556Z,80.35
2018-09-08T22:46:16.065Z,80.27
2018-09-08T22:48:48.567Z,79.57
2018-09-08T22:51:21.596Z,79.80
2018-09-08T22:53:51.206Z,79.76
2018-09-08T22:56:21.185Z,80.10
2018-09-08T22:58:52.163Z,80.13
2018-09-08T23:01:22.729Z,80.23
2018-09-08T23:03:54.795Z,80.04
2018-09-08T23:09:46.249Z,80.44
2018-09-08T23:12:17.750Z,80.09
2018-09-08T23:14:48.228Z,80.78
2018-09-08T23:17:19.679Z,80.92
2018-09-08T23:19:49.350Z,81.32
2018-09-08T23:22:20.892Z,81.13
2018-09-08T23:24:51.119Z,81.23
2018-09-08T23:27:21.489Z,81.50
2018-09-08T23:29:51.559Z,81.47
2018-09-08T23:32:22.753Z,81.26
2018-09-08T23:34:52.910Z,82.36
2018-09-08T23:37:22.701Z,82.33
2018-09-08T23:39:52.463Z,82.31
2018-09-08T23:42:24.654Z,81.91
2018-09-08T23:44:54.444Z,81.93
2018-09-08T23:47:24.193Z,81.68
2018-09-08T23:49:55.151Z,81.92
2018-09-08T23:52:25.071Z,82.46
2018-09-08T23:55:00.161Z,82.09
2018-09-08T23:57:30.947Z,83.14
